createdAt,value
2022-09-17T00:10:51.390Z,94.4
2022-09-17T00:30:51.373Z,95
2022-09-17T00:50:51.338Z,95.1
2022-09-17T01:10:51.306Z,95.2
2022-09-17T01:30:51.282Z,95.7
2022-09-17T01:50:51.253Z,96.2
2022-09-17T02:10:51.216Z,96.3
2022-09-17T02:30:51.191Z,96.4
2022-09-17T02:50:51.186Z,96.3
2022-09-17T03:10:51.141Z,94.8
2022-09-17T04:10:51.049Z,93.6
2022-09-17T04:30:51.088Z,93.7
2022-09-17T04:50:50.991Z,93.3
2022-09-17T05:30:50.985Z,91.9
2022-09-17T05:50:50.905Z,91.7
2022-09-17T06:10:50.868Z,90
2022-09-17T06:30:50.843Z,86.9
2022-09-17T06:50:50.812Z,87.5
2022-09-17T07:10:50.785Z,87.1
2022-09-17T07:30:50.833Z,86.3
2022-09-17T07:50:50.729Z,84.2
2022-09-17T08:10:50.695Z,84.2
2022-09-17T08:50:50.629Z,76.3
2022-09-17T09:10:50.601Z,72.4
2022-09-17T09:30:50.575Z,72.4
2022-09-17T09:51:05.008Z,67.6
2022-09-17T10:10:50.506Z,65.9
2022-09-17T10:30:50.477Z,68.6
2022-09-17T10:50:50.439Z,76.6
2022-09-17T11:10:50.406Z,81.8
2022-09-17T11:30:50.380Z,67.8
2022-09-17T11:50:50.345Z,69.7
2022-09-17T12:10:50.313Z,80.3
2022-09-17T12:30:50.279Z,84.7
2022-09-17T12:50:50.269Z,78.5
2022-09-17T13:10:50.213Z,82.9
2022-09-17T13:30:50.194Z,79.5
2022-09-17T13:50:50.161Z,73.5
2022-09-17T14:10:50.123Z,74.6
2022-09-17T14:30:50.133Z,72.9
2022-09-17T14:50:50.059Z,96.4
2022-09-17T15:30:49.996Z,95.2
2022-09-17T16:50:49.872Z,80.8
2022-09-17T17:10:49.844Z,81.6
2022-09-17T17:30:49.813Z,83.9
2022-09-17T17:50:52.367Z,82.9
2022-09-17T18:10:49.777Z,82.4
2022-09-17T18:30:49.721Z,83.4
2022-09-17T18:50:49.688Z,84.5
2022-09-17T19:10:49.661Z,83.4
2022-09-17T19:30:49.675Z,83.9
2022-09-17T19:50:49.601Z,83.6
2022-09-17T20:10:49.576Z,82.7
2022-09-17T20:30:49.610Z,82.4
2022-09-17T20:50:49.517Z,82.7
2022-09-17T21:10:49.475Z,83.8
2022-09-17T21:30:49.447Z,85.2
2022-09-17T21:50:49.431Z,86.5
2022-09-17T22:10:49.397Z,87.7
2022-09-17T22:30:49.427Z,88.8
2022-09-17T22:50:49.331Z,89.3
2022-09-17T23:10:49.300Z,90.3
2022-09-17T23:30:49.315Z,91.3
2022-09-17T23:50:49.246Z,91.4
